Time;durP1;ratioP1;P1;durP2;ratioP2;P2;SDS_P1;SDS_P2;PMS_P1;PMS_P2;Temp;Humidity;BMP_temperature;BMP_pressure;BME280_temperature;BME280_humidity;BME280_pressure;Samples;Min_cycle;Max_cycle;Signal;HPM_P1;HPM_P2
2021/07/13 00:01:39;;;;;;;2.10;2.00;;;26.90;48.80;;;-147.20;100.00;58430.41;5115332;28;20039;-52
2021/07/13 00:04:04;;;;;;;2.17;2.08;;;26.90;48.80;;;-147.20;100.00;58430.41;5096419;28;20052;-54
2021/07/13 00:06:31;;;;;;;2.80;2.60;;;26.80;48.70;;;-147.20;100.00;58430.41;5114942;28;20510;-53
2021/07/13 00:08:57;;;;;;;2.15;2.05;;;26.80;48.70;;;-147.20;100.00;58430.41;5114989;28;20059;-52
2021/07/13 00:11:23;;;;;;;2.40;2.20;;;26.90;48.80;;;-147.20;100.00;58430.41;5114833;28;20380;-48
2021/07/13 00:13:50;;;;;;;2.38;2.28;;;26.80;48.90;;;-147.20;100.00;58430.41;5114734;28;20092;-51
2021/07/13 00:16:16;;;;;;;2.45;2.33;;;26.80;48.80;;;-147.20;100.00;58430.41;5115040;28;20054;-48
2021/07/13 00:18:42;;;;;;;2.10;2.00;;;26.80;48.90;;;-147.20;100.00;58430.41;5114650;28;20040;-50
2021/07/13 00:21:08;;;;;;;2.75;2.55;;;26.80;48.90;;;-147.20;100.00;58430.41;5114712;28;20403;-51
2021/07/13 00:23:37;;;;;;;2.60;2.40;;;26.80;48.90;;;-147.20;100.00;58430.41;5115009;28;20048;-49
2021/07/13 00:26:05;;;;;;;3.00;2.00;;;26.80;48.90;;;-147.20;100.00;58430.41;5114678;28;20067;-52
2021/07/13 00:28:32;;;;;;;2.55;2.20;;;26.80;48.90;;;-147.20;100.00;58430.41;5114689;28;20062;-51
2021/07/13 00:30:57;;;;;;;2.40;2.20;;;26.70;48.90;;;-147.20;100.00;58430.41;5114883;28;20044;-50
2021/07/13 00:33:23;;;;;;;2.17;2.08;;;26.80;49.00;;;-147.20;100.00;58430.41;5114505;28;20043;-51
2021/07/13 00:35:49;;;;;;;2.60;2.40;;;26.70;48.90;;;-147.20;100.00;58430.41;5115125;28;20047;-52
2021/07/13 00:38:15;;;;;;;2.35;2.15;;;26.70;48.90;;;-147.20;100.00;58430.41;5114574;28;20322;-50
2021/07/13 00:40:41;;;;;;;2.50;2.30;;;26.70;48.90;;;-147.20;100.00;58430.41;5114392;28;20035;-55
2021/07/13 00:43:10;;;;;;;2.60;2.40;;;26.70;49.00;;;-147.20;100.00;58430.41;5114984;28;20403;-49
2021/07/13 00:45:36;;;;;;;2.25;2.05;;;26.70;49.00;;;-147.20;100.00;58430.41;5095976;28;20123;-50
2021/07/13 00:48:03;;;;;;;2.05;1.95;;;26.70;49.00;;;-147.20;100.00;58430.41;5114212;28;20058;-53
2021/07/13 00:50:29;;;;;;;2.40;2.20;;;26.60;48.90;;;-147.20;100.00;58430.41;5092608;28;20052;-55
2021/07/13 00:52:58;;;;;;;2.20;2.10;;;26.60;49.00;;;-147.20;100.00;58430.41;5114368;28;20051;-52
2021/07/13 00:55:25;;;;;;;2.00;1.90;;;26.60;49.00;;;-147.20;100.00;58430.41;5114178;28;20422;-52
2021/07/13 00:57:51;;;;;;;2.20;2.10;;;26.70;49.00;;;-147.20;100.00;58430.41;5113896;28;20048;-53
2021/07/13 01:00:21;;;;;;;2.35;2.20;;;26.60;49.00;;;-147.20;100.00;58430.41;5114053;28;20419;-54
2021/07/13 01:02:51;;;;;;;2.28;2.17;;;26.60;49.00;;;-147.20;100.00;58430.41;5114338;28;20510;-52
2021/07/13 01:05:21;;;;;;;2.00;1.90;;;26.60;49.10;;;-147.20;100.00;58430.41;5114079;28;20138;-53
2021/07/13 01:08:19;;;;;;;2.38;2.20;;;26.60;49.10;;;-147.20;100.00;58430.41;5112472;28;20448;-50
2021/07/13 01:11:20;;;;;;;2.05;1.95;;;26.60;49.10;;;-147.20;100.00;58430.41;5095823;28;20067;-51
2021/07/13 01:14:20;;;;;;;2.20;2.10;;;26.60;49.10;;;-147.20;100.00;58430.41;5113937;28;20047;-52
2021/07/13 01:17:05;;;;;;;2.15;2.05;;;26.60;49.10;;;-147.20;100.00;58430.41;5094985;28;20111;-52
2021/07/13 01:19:43;;;;;;;2.38;2.17;;;26.60;49.70;;;-147.20;100.00;58430.41;5094820;28;20509;-54
2021/07/13 01:22:14;;;;;;;1.90;1.80;;;26.50;49.10;;;-147.20;100.00;58430.41;5113641;28;20437;-50
2021/07/13 01:25:12;;;;;;;2.25;2.15;;;26.50;49.20;;;-147.20;100.00;58430.41;5114088;28;20124;-54
2021/07/13 01:27:48;;;;;;;2.28;2.17;;;26.50;49.10;;;-147.20;100.00;58430.41;5113622;28;20048;-52
2021/07/13 01:30:22;;;;;;;2.10;2.00;;;26.50;49.10;;;-147.20;100.00;58430.41;5113607;28;20066;-49
2021/07/13 01:33:05;;;;;;;2.45;2.25;;;26.50;49.10;;;-147.20;100.00;58430.41;5113183;28;20078;-54
2021/07/13 01:36:09;;;;;;;2.40;2.20;;;26.50;49.20;;;-147.20;100.00;58430.41;5093966;28;20055;-55
2021/07/13 01:38:40;;;;;;;2.15;2.05;;;26.50;49.20;;;-147.20;100.00;58430.41;5113635;28;20491;-52
2021/07/13 01:41:10;;;;;;;2.17;2.08;;;26.50;49.20;;;-147.20;100.00;58430.41;5095480;28;20506;-52
2021/07/13 01:43:41;;;;;;;2.33;2.13;;;26.50;49.20;;;-147.20;100.00;58430.41;5113223;28;20131;-55
2021/07/13 01:46:08;;;;;;;1.95;1.85;;;26.50;49.20;;;-147.20;100.00;58430.41;5095159;28;20072;-51
2021/07/13 01:48:36;;;;;;;1.90;1.80;;;26.50;49.20;;;-147.20;100.00;58430.41;5092013;28;20118;-50
2021/07/13 01:51:04;;;;;;;2.15;2.05;;;26.50;49.20;;;-147.20;100.00;58430.41;5095192;28;20066;-54
2021/07/13 01:53:31;;;;;;;1.98;1.88;;;26.50;49.20;;;-147.20;100.00;58430.41;5113309;28;20094;-53
2021/07/13 01:55:58;;;;;;;2.55;2.38;;;26.50;49.30;;;-147.20;100.00;58430.41;5094214;28;20094;-52
2021/07/13 01:58:29;;;;;;;2.10;2.00;;;26.50;49.30;;;-147.20;100.00;58430.41;5113531;28;20059;-55
2021/07/13 02:01:06;;;;;;;2.00;1.90;;;26.50;49.30;;;-147.20;100.00;58430.41;5095290;28;20139;-52
2021/07/13 02:03:32;;;;;;;2.28;2.08;;;26.50;49.30;;;-147.20;100.00;58430.41;5095243;28;20044;-54
2021/07/13 02:05:59;;;;;;;2.20;2.10;;;26.50;49.30;;;-147.20;100.00;58430.41;5113346;28;20047;-53
2021/07/13 02:08:26;;;;;;;2.33;2.22;;;26.50;49.30;;;-147.20;100.00;58430.41;5094680;28;20554;-54
2021/07/13 02:10:52;;;;;;;2.30;2.10;;;26.50;49.30;;;-147.20;100.00;58430.41;5091980;28;20052;-47
2021/07/13 02:13:19;;;;;;;2.00;1.90;;;26.40;49.20;;;-147.20;100.00;58430.41;5095096;28;20160;-53
2021/07/13 02:15:46;;;;;;;2.03;1.92;;;26.40;49.30;;;-147.20;100.00;58430.41;5112956;28;20063;-54
2021/07/13 02:18:13;;;;;;;2.22;2.13;;;26.40;49.30;;;-147.20;100.00;58430.41;5113009;28;20039;-53
2021/07/13 02:20:40;;;;;;;2.00;1.90;;;26.40;49.40;;;-147.20;100.00;58430.41;5113590;28;20139;-47
2021/07/13 02:23:09;;;;;;;2.47;2.28;;;26.40;49.40;;;-147.20;100.00;58430.41;5112822;28;20134;-50
2021/07/13 02:25:35;;;;;;;2.28;1.98;;;26.40;49.40;;;-147.20;100.00;58430.41;5112517;28;20075;-52
2021/07/13 02:28:45;;;;;;;2.22;2.08;;;26.40;49.40;;;-147.20;100.00;58430.41;5093232;28;20045;-51
2021/07/13 02:31:24;;;;;;;2.08;1.92;;;26.40;49.40;;;-147.20;100.00;58430.41;5095207;28;20048;-49
2021/07/13 02:33:58;;;;;;;2.00;1.90;;;26.40;49.50;;;-147.20;100.00;58430.41;5113007;28;20509;-50
2021/07/13 02:36:28;;;;;;;2.13;1.98;;;26.40;49.50;;;-147.20;100.00;58430.41;5094722;28;20052;-51
2021/07/13 02:38:57;;;;;;;2.03;1.92;;;26.40;49.50;;;-147.20;100.00;58430.41;5094621;28;20475;-48
2021/07/13 02:41:25;;;;;;;2.05;1.95;;;26.40;49.50;;;-147.20;100.00;58430.41;5112900;28;20043;-46
2021/07/13 02:43:53;;;;;;;1.90;1.80;;;26.30;49.40;;;-147.20;100.00;58430.41;5094708;28;20043;-48
2021/07/13 02:46:21;;;;;;;1.83;1.73;;;26.30;49.40;;;-147.20;100.00;58430.41;5094452;28;20058;-50
2021/07/13 02:48:47;;;;;;;1.95;1.85;;;26.30;49.50;;;-147.20;100.00;58430.41;5112469;28;20052;-51
2021/07/13 02:51:14;;;;;;;2.10;2.00;;;26.30;49.50;;;-147.20;100.00;58430.41;5094416;28;20048;-50
2021/07/13 02:53:44;;;;;;;2.20;2.10;;;26.30;50.00;;;-147.20;100.00;58430.41;5110982;28;20047;-52
2021/07/13 02:56:11;;;;;;;1.85;1.75;;;26.30;49.50;;;-147.20;100.00;58430.41;5096381;28;20093;-50
2021/07/13 02:58:39;;;;;;;2.00;1.90;;;26.30;49.60;;;-147.20;100.00;58430.41;5097785;28;20376;-49
2021/07/13 03:01:06;;;;;;;2.28;2.17;;;26.30;49.60;;;-147.20;100.00;58430.41;5116269;28;20059;-51
2021/07/13 03:03:36;;;;;;;2.00;1.90;;;26.30;49.60;;;-147.20;100.00;58430.41;5116202;28;20047;-46
2021/07/13 03:06:03;;;;;;;2.50;2.30;;;26.30;49.60;;;-147.20;100.00;58430.41;5097695;28;20051;-51
2021/07/13 03:08:30;;;;;;;2.03;1.92;;;26.30;49.60;;;-147.20;100.00;58430.41;5115953;28;20047;-52
2021/07/13 03:10:57;;;;;;;2.00;1.90;;;26.30;49.60;;;-147.20;100.00;58430.41;5097069;28;20043;-47
2021/07/13 03:13:24;;;;;;;2.00;1.90;;;26.30;49.60;;;-147.20;100.00;58430.41;5116216;28;20062;-51
2021/07/13 03:15:51;;;;;;;1.90;1.80;;;26.30;49.60;;;-147.20;100.00;58430.41;5115673;28;20384;-47
2021/07/13 03:18:19;;;;;;;2.35;2.15;;;26.30;49.60;;;-147.20;100.00;58430.41;5115486;28;20055;-51
2021/07/13 03:20:52;;;;;;;2.03;1.92;;;26.30;49.70;;;-147.20;100.00;58430.41;5115831;28;20498;-50
2021/07/13 03:23:21;;;;;;;2.55;2.30;;;26.30;49.70;;;-147.20;100.00;58430.41;5080927;28;20467;-46
2021/07/13 03:25:50;;;;;;;1.98;1.88;;;26.30;49.70;;;-147.20;100.00;58430.41;5097410;28;20052;-46
2021/07/13 03:28:18;;;;;;;1.80;1.70;;;26.30;49.70;;;-147.20;100.00;58430.41;5097568;28;20047;-46
2021/07/13 03:30:47;;;;;;;2.00;1.90;;;26.30;49.70;;;-147.20;100.00;58430.41;5097750;28;20425;-48
2021/07/13 03:33:15;;;;;;;1.95;1.85;;;26.30;49.70;;;-147.20;100.00;58430.41;5064127;28;20047;-51
2021/07/13 03:35:43;;;;;;;1.90;1.80;;;26.30;49.70;;;-147.20;100.00;58430.41;5097138;28;20048;-51
2021/07/13 03:38:10;;;;;;;2.20;2.10;;;26.20;49.60;;;-147.20;100.00;58430.41;5097208;28;20139;-53
2021/07/13 03:40:36;;;;;;;2.10;2.00;;;26.20;49.70;;;-147.20;100.00;58430.41;5097107;28;20043;-53
2021/07/13 03:43:02;;;;;;;1.98;1.88;;;26.30;49.70;;;-147.20;100.00;58430.41;5113898;28;20106;-50
2021/07/13 03:45:29;;;;;;;2.10;2.00;;;26.20;49.70;;;-147.20;100.00;58430.41;5115281;28;20047;-53
2021/07/13 03:48:00;;;;;;;2.13;1.92;;;26.20;49.70;;;-147.20;100.00;58430.41;5115030;28;20056;-50
2021/07/13 03:50:33;;;;;;;;;;;26.20;50.00;;;-147.20;100.00;58430.41;5115371;28;20079;-52
2021/07/13 03:53:00;;;;;;;2.05;1.90;;;26.20;49.90;;;-147.20;100.00;58430.41;5115366;28;20379;-53
2021/07/13 03:55:26;;;;;;;2.17;2.08;;;26.20;49.90;;;-147.20;100.00;58430.41;5115021;28;20399;-52
2021/07/13 03:57:54;;;;;;;2.00;1.90;;;26.20;50.00;;;-147.20;100.00;58430.41;5114664;28;20047;-50
2021/07/13 04:00:23;;;;;;;1.98;1.88;;;26.20;50.00;;;-147.20;100.00;58430.41;5114747;28;20052;-52
2021/07/13 04:02:50;;;;;;;2.03;1.92;;;26.20;50.00;;;-147.20;100.00;58430.41;5115367;28;20061;-47
2021/07/13 04:05:16;;;;;;;2.30;2.10;;;26.20;50.00;;;-147.20;100.00;58430.41;5114642;28;20050;-47
2021/07/13 04:07:42;;;;;;;2.10;2.00;;;26.20;50.00;;;-147.20;100.00;58430.41;5114164;28;20078;-51
2021/07/13 04:10:11;;;;;;;1.95;1.85;;;26.20;50.00;;;-147.20;100.00;58430.41;5114665;28;20051;-50
2021/07/13 04:12:37;;;;;;;2.03;1.90;;;26.20;50.00;;;-147.20;100.00;58430.41;5114986;28;20131;-49
2021/07/13 04:15:06;;;;;;;2.25;2.05;;;26.20;50.00;;;-147.20;100.00;58430.41;5114882;28;20047;-50
2021/07/13 04:17:32;;;;;;;2.35;2.15;;;26.20;50.00;;;-147.20;100.00;58430.41;5096488;28;20040;-51
2021/07/13 04:19:58;;;;;;;1.98;1.88;;;26.20;50.00;;;-147.20;100.00;58430.41;5096474;28;20047;-51
2021/07/13 04:22:23;;;;;;;1.95;1.85;;;26.20;50.00;;;-147.20;100.00;58430.41;5114622;28;20040;-48
2021/07/13 04:24:49;;;;;;;2.17;2.08;;;26.20;50.00;;;-147.20;100.00;58430.41;5114986;28;20043;-47
2021/07/13 04:27:15;;;;;;;4.03;1.90;;;26.20;50.00;;;31.30;32.06;100707.75;5115086;28;20063;-49
2021/07/13 04:29:41;;;;;;;2.00;1.90;;;26.20;50.00;;;30.43;32.88;100710.00;5114792;28;20044;-53
2021/07/13 04:32:07;;;;;;;2.10;2.00;;;26.20;50.00;;;-147.20;100.00;58430.41;5114645;28;20543;-51
2021/07/13 04:34:34;;;;;;;2.03;1.92;;;26.20;49.90;;;-147.20;100.00;58430.41;5096306;28;20399;-49
2021/07/13 04:37:01;;;;;;;2.33;1.90;;;26.20;49.80;;;-147.20;100.00;58430.41;5114792;28;20063;-51
2021/07/13 04:39:27;;;;;;;2.22;2.08;;;26.30;49.90;;;-147.20;100.00;58430.41;5114708;28;20485;-50
2021/07/13 04:41:53;;;;;;;2.05;1.95;;;26.20;49.90;;;-147.20;100.00;58430.41;5114642;28;20124;-49
2021/07/13 04:44:19;;;;;;;2.00;1.90;;;26.30;49.90;;;-147.20;100.00;58430.41;5114458;28;20075;-51
2021/07/13 04:46:44;;;;;;;2.30;2.15;;;26.30;49.90;;;-147.20;100.00;58430.41;5094229;28;20051;-51
2021/07/13 04:49:11;;;;;;;2.20;2.10;;;26.30;49.80;;;-147.20;100.00;58430.41;5114232;28;20047;-49
2021/07/13 04:51:38;;;;;;;2.28;2.10;;;26.30;49.80;;;-147.20;100.00;58430.41;5114042;28;20138;-49
2021/07/13 04:54:04;;;;;;;2.28;2.15;;;26.30;49.80;;;-147.20;100.00;58430.41;5114228;28;20100;-54
2021/07/13 04:56:29;;;;;;;2.17;2.03;;;26.30;49.70;;;-147.20;100.00;58430.41;5114044;28;20114;-48
2021/07/13 04:58:55;;;;;;;2.20;2.10;;;26.30;49.70;;;-147.20;100.00;58430.41;5114180;28;20047;-49
2021/07/13 05:01:21;;;;;;;1.98;1.88;;;26.30;49.60;;;-147.20;100.00;58430.41;5114363;28;20176;-46
2021/07/13 05:03:47;;;;;;;2.00;1.90;;;26.30;49.60;;;-147.20;100.00;58430.41;5114668;28;20088;-48
2021/07/13 05:06:14;;;;;;;2.10;2.00;;;26.30;49.60;;;-147.20;100.00;58430.41;5113861;28;20048;-50
2021/07/13 05:08:41;;;;;;;2.13;2.03;;;26.40;49.70;;;-147.20;100.00;58430.41;5113997;28;20039;-47
2021/07/13 05:11:07;;;;;;;1.75;1.65;;;26.40;49.60;;;-147.20;100.00;58430.41;5113760;28;20048;-47
2021/07/13 05:13:33;;;;;;;2.00;1.90;;;26.40;49.60;;;-147.20;100.00;58430.41;5110118;28;20059;-50
2021/07/13 05:15:59;;;;;;;2.10;2.00;;;26.50;49.60;;;-147.20;100.00;58430.41;5114010;28;20048;-50
2021/07/13 05:18:25;;;;;;;1.80;1.70;;;26.50;49.40;;;-147.20;100.00;58430.41;5112891;28;20376;-48
2021/07/13 05:20:58;;;;;;;1.98;1.88;;;26.50;49.40;;;-147.20;100.00;58430.41;5095589;28;20043;-48
2021/07/13 05:23:24;;;;;;;1.90;1.80;;;26.50;49.30;;;-147.20;100.00;58430.41;5114182;28;20150;-51
2021/07/13 05:25:51;;;;;;;1.90;1.80;;;26.50;49.30;;;-147.20;100.00;58430.41;5093573;28;20484;-47
2021/07/13 05:28:17;;;;;;;2.63;2.20;;;26.50;49.30;;;-147.20;100.00;58430.41;5113438;28;20414;-51
2021/07/13 05:30:45;;;;;;;2.03;1.92;;;26.50;49.30;;;-147.20;100.00;58430.41;5113823;28;20079;-48
2021/07/13 05:33:13;;;;;;;1.90;1.77;;;26.50;49.30;;;-147.20;100.00;58430.41;5113595;28;20050;-47
2021/07/13 05:35:39;;;;;;;2.03;1.92;;;26.60;49.30;;;-147.20;100.00;58430.41;5113565;28;20051;-48
2021/07/13 05:38:05;;;;;;;2.00;1.80;;;26.50;49.20;;;-147.20;100.00;58430.41;5113386;28;20047;-49
2021/07/13 05:40:31;;;;;;;2.28;2.08;;;26.60;49.20;;;-147.20;100.00;58430.41;5113514;28;20051;-49
2021/07/13 05:42:57;;;;;;;2.22;2.03;;;26.60;49.10;;;-147.20;100.00;58430.41;5113226;28;20402;-49
2021/07/13 05:45:24;;;;;;;2.30;2.10;;;26.70;49.10;;;-147.20;100.00;58430.41;5094839;28;20551;-50
2021/07/13 05:47:50;;;;;;;2.10;2.00;;;26.80;49.00;;;-147.20;100.00;58430.41;5113492;28;20052;-51
2021/07/13 05:50:16;;;;;;;1.95;1.85;;;26.80;48.90;;;-147.20;100.00;58430.41;5113225;28;20075;-50
2021/07/13 05:52:42;;;;;;;1.98;1.88;;;26.90;49.00;;;-147.20;100.00;58430.41;5113332;28;20051;-52
2021/07/13 05:55:09;;;;;;;2.15;2.03;;;26.90;48.90;;;-147.20;100.00;58430.41;5112011;28;20046;-49
2021/07/13 05:57:35;;;;;;;1.85;1.75;;;27.00;48.90;;;-147.20;100.00;58430.41;5113295;28;20043;-50
2021/07/13 06:00:04;;;;;;;2.03;1.92;;;27.00;48.60;;;-147.20;100.00;58430.41;5113077;28;20406;-48
2021/07/13 06:02:39;;;;;;;2.15;1.80;;;27.00;48.60;;;-147.20;100.00;58430.41;5113110;28;20055;-50
2021/07/13 06:05:06;;;;;;;1.92;1.70;;;27.00;48.50;;;-147.20;100.00;58430.41;5113179;28;20433;-47
2021/07/13 06:07:32;;;;;;;2.08;1.98;;;27.10;48.40;;;-147.20;100.00;58430.41;5113252;28;20043;-48
2021/07/13 06:09:57;;;;;;;1.95;1.85;;;27.20;48.20;;;-147.20;100.00;58430.41;5111865;28;20502;-47
2021/07/13 06:12:23;;;;;;;1.90;1.80;;;27.30;48.20;;;-147.20;100.00;58430.41;5113251;28;20116;-50
2021/07/13 06:14:49;;;;;;;2.20;2.10;;;27.20;48.60;;;-147.20;100.00;58430.41;5094813;28;20050;-51
2021/07/13 06:17:15;;;;;;;2.42;1.73;;;27.20;48.10;;;-147.20;100.00;58430.41;5112963;28;20411;-47
2021/07/13 06:19:41;;;;;;;1.90;1.80;;;27.30;48.20;;;-147.20;100.00;58430.41;5112975;28;20062;-50
2021/07/13 06:22:07;;;;;;;2.20;2.10;;;27.30;48.00;;;-147.20;100.00;58430.41;5112737;28;20047;-48
2021/07/13 06:24:33;;;;;;;1.90;1.80;;;27.40;47.90;;;-147.20;100.00;58430.41;5112875;28;20054;-46
2021/07/13 06:26:58;;;;;;;1.83;1.73;;;27.40;47.70;;;-147.20;100.00;58430.41;5112819;28;20063;-49
2021/07/13 06:29:24;;;;;;;1.67;1.58;;;27.50;47.70;;;-147.20;100.00;58430.41;5113796;28;20059;-48
2021/07/13 06:31:51;;;;;;;1.80;1.70;;;27.60;47.60;;;-147.20;100.00;58430.41;5116962;28;20039;-46
2021/07/13 06:34:18;;;;;;;1.85;1.70;;;27.60;47.50;;;-147.20;100.00;58430.41;5116385;28;20047;-48
2021/07/13 06:36:43;;;;;;;1.77;1.67;;;27.70;47.50;;;-147.20;100.00;58430.41;5116584;28;20074;-53
2021/07/13 06:39:09;;;;;;;1.80;1.70;;;27.70;47.40;;;-147.20;100.00;58430.41;5116440;28;20040;-49
2021/07/13 06:41:35;;;;;;;2.35;1.70;;;27.80;47.30;;;-147.20;100.00;58430.41;5116271;28;20403;-46
2021/07/13 06:44:01;;;;;;;1.83;1.73;;;27.80;47.20;;;-147.20;100.00;58430.41;5116286;28;20437;-50
2021/07/13 06:46:27;;;;;;;1.90;1.80;;;27.80;47.10;;;-147.20;100.00;58430.41;5116176;28;20044;-50
2021/07/13 06:48:52;;;;;;;1.80;1.70;;;27.90;47.00;;;-147.20;100.00;58430.41;5116144;28;20104;-49
2021/07/13 06:51:18;;;;;;;1.88;1.60;;;27.90;47.00;;;-147.20;100.00;58430.41;5116187;28;20056;-48
2021/07/13 06:53:44;;;;;;;1.55;1.45;;;28.00;47.00;;;-147.20;100.00;58430.41;5116182;28;20039;-48
2021/07/13 06:56:10;;;;;;;1.67;1.58;;;28.00;46.80;;;-147.20;100.00;58430.41;5116464;28;20097;-51
2021/07/13 06:58:35;;;;;;;1.90;1.80;;;28.10;46.80;;;-147.20;100.00;58430.41;5095579;28;20043;-48
2021/07/13 07:01:01;;;;;;;2.25;2.05;;;28.10;46.70;;;-147.20;100.00;58430.41;5115919;28;20135;-47
2021/07/13 07:03:27;;;;;;;1.83;1.73;;;28.10;46.70;;;-147.20;100.00;58430.41;5097928;28;20434;-49
2021/07/13 07:05:53;;;;;;;1.95;1.85;;;28.10;46.50;;;-147.20;100.00;58430.41;5116347;28;20044;-51
2021/07/13 07:08:19;;;;;;;1.98;1.88;;;28.20;46.50;;;-147.20;100.00;58430.41;5115722;28;20063;-49
2021/07/13 07:10:44;;;;;;;1.80;1.70;;;28.30;46.50;;;-147.20;100.00;58430.41;5116347;28;20050;-51
2021/07/13 07:13:11;;;;;;;1.80;1.70;;;28.30;46.40;;;-147.20;100.00;58430.41;5097469;28;20039;-51
2021/07/13 07:15:37;;;;;;;1.83;1.73;;;28.40;46.40;;;-147.20;100.00;58430.41;5115858;28;20052;-50
2021/07/13 07:18:03;;;;;;;2.67;1.83;;;28.40;46.30;;;-147.20;100.00;58430.41;5096007;28;20059;-48
2021/07/13 07:20:29;;;;;;;2.03;1.92;;;28.50;46.10;;;-147.20;100.00;58430.41;5116046;28;20135;-48
2021/07/13 07:22:57;;;;;;;1.95;1.85;;;28.50;46.10;;;-147.20;100.00;58430.41;5115434;28;20146;-52
2021/07/13 07:25:23;;;;;;;2.03;1.83;;;28.50;46.00;;;-147.20;100.00;58430.41;5115983;28;20108;-50
2021/07/13 07:27:55;;;;;;;1.70;1.60;;;28.60;45.90;;;-147.20;100.00;58430.41;5115579;28;20056;-50
2021/07/13 07:30:23;;;;;;;1.80;1.70;;;28.60;45.80;;;-147.20;100.00;58430.41;5115663;28;20564;-52
2021/07/13 07:32:49;;;;;;;1.90;1.80;;;28.70;45.80;;;-147.20;100.00;58430.41;5115485;28;20048;-51
2021/07/13 07:35:15;;;;;;;2.00;1.90;;;28.70;45.70;;;-147.20;100.00;58430.41;5115209;28;20052;-48
2021/07/13 07:37:42;;;;;;;2.10;2.00;;;28.80;45.60;;;-147.20;100.00;58430.41;5115225;28;20570;-54
2021/07/13 07:40:17;;;;;;;1.80;1.70;;;28.80;45.60;;;-147.20;100.00;58430.41;5095594;28;20109;-56
2021/07/13 07:42:45;;;;;;;1.90;1.80;;;28.80;45.50;;;-147.20;100.00;58430.41;5096268;28;20055;-53
2021/07/13 07:45:11;;;;;;;1.73;1.63;;;28.90;45.40;;;-147.20;100.00;58430.41;5115237;28;20040;-50
2021/07/13 07:47:37;;;;;;;2.08;1.90;;;28.90;45.50;;;-147.20;100.00;58430.41;5095571;28;20071;-51
2021/07/13 07:50:05;;;;;;;1.90;1.80;;;28.90;45.40;;;-147.20;100.00;58430.41;5096941;28;20043;-50
2021/07/13 07:52:31;;;;;;;2.08;1.88;;;28.90;45.40;;;-147.20;100.00;58430.41;5115216;28;20188;-52
2021/07/13 07:55:00;;;;;;;2.20;2.10;;;29.00;45.30;;;-147.20;100.00;58430.41;5113120;28;20489;-53
2021/07/13 07:57:26;;;;;;;2.10;1.90;;;29.00;45.30;;;-147.20;100.00;58430.41;5115482;28;20624;-51
2021/07/13 07:59:52;;;;;;;2.35;1.75;;;29.00;45.20;;;-147.20;100.00;58430.41;5114986;28;20055;-52
2021/07/13 08:02:18;;;;;;;2.53;2.33;;;29.10;45.20;;;-147.20;100.00;58430.41;5114904;28;20399;-52
2021/07/13 08:04:43;;;;;;;1.88;1.77;;;29.10;45.10;;;-147.20;100.00;58430.41;5115284;28;20040;-49
2021/07/13 08:07:09;;;;;;;2.20;1.80;;;29.10;45.10;;;-147.20;100.00;58430.41;5115468;28;20048;-53
2021/07/13 08:09:35;;;;;;;1.90;1.80;;;29.10;45.00;;;-147.20;100.00;58430.41;5114867;28;20077;-51
2021/07/13 08:12:01;;;;;;;2.03;1.92;;;29.20;45.00;;;-147.20;100.00;58430.41;5114925;28;20051;-53
2021/07/13 08:14:27;;;;;;;1.90;1.80;;;29.20;44.90;;;-147.20;100.00;58430.41;5114681;28;20047;-54
2021/07/13 08:16:53;;;;;;;1.80;1.70;;;29.20;44.90;;;-147.20;100.00;58430.41;5114889;28;20044;-51
2021/07/13 08:19:19;;;;;;;1.98;1.88;;;29.20;44.90;;;-147.20;100.00;58430.41;5115039;28;20051;-52
2021/07/13 08:21:45;;;;;;;2.90;1.83;;;29.20;44.80;;;-147.20;100.00;58430.41;5114548;28;20585;-52
2021/07/13 08:24:12;;;;;;;2.20;2.00;;;29.20;44.80;;;-147.20;100.00;58430.41;5114465;28;20491;-49
2021/07/13 08:26:38;;;;;;;2.28;2.08;;;29.20;44.80;;;-147.20;100.00;58430.41;5079456;28;20499;-49
2021/07/13 08:29:05;;;;;;;2.15;1.95;;;29.20;44.80;;;-147.20;100.00;58430.41;5114576;28;20062;-52
2021/07/13 08:31:30;;;;;;;1.75;1.65;;;29.30;44.80;;;-147.20;100.00;58430.41;5114440;28;20074;-53
2021/07/13 08:33:56;;;;;;;2.10;2.00;;;29.30;44.90;;;-147.20;100.00;58430.41;5114628;28;20043;-51
2021/07/13 08:36:22;;;;;;;2.47;2.10;;;29.30;44.70;;;-147.20;100.00;58430.41;5114414;28;20052;-53
2021/07/13 08:38:48;;;;;;;2.00;1.90;;;29.30;44.80;;;-147.20;100.00;58430.41;5096199;28;20047;-48
2021/07/13 08:41:22;;;;;;;1.80;1.70;;;29.30;44.80;;;30.43;32.88;100710.00;5114246;28;20044;-54
2021/07/13 08:43:51;;;;;;;1.92;1.83;;;29.30;44.80;;;33.20;29.27;100690.19;5114893;28;20050;-51
2021/07/13 08:46:19;;;;;;;1.75;1.65;;;29.20;44.70;;;33.23;29.03;100689.84;5114250;28;20165;-54
2021/07/13 08:48:49;;;;;;;2.38;1.67;;;29.30;44.70;;;33.23;29.19;100689.00;5114207;28;20040;-53
2021/07/13 08:51:17;;;;;;;2.85;2.30;;;29.30;44.70;;;33.24;29.21;100685.25;5114573;28;20047;-51
2021/07/13 08:53:43;;;;;;;2.58;2.38;;;29.30;44.70;;;33.28;29.28;100693.84;5113026;28;20490;-49
2021/07/13 08:56:08;;;;;;;1.65;1.55;;;29.30;44.60;;;33.28;29.16;100688.44;5095837;28;20042;-53
2021/07/13 08:58:34;;;;;;;1.80;1.70;;;29.40;44.70;;;33.26;28.97;100677.78;5114141;28;20039;-50
2021/07/13 09:01:00;;;;;;;2.47;2.28;;;29.40;44.60;;;33.29;29.31;100682.84;5114091;28;20043;-52
2021/07/13 09:03:30;;;;;;;1.90;1.80;;;29.30;44.60;;;33.30;29.00;100686.41;5114006;28;20044;-53
2021/07/13 09:05:57;;;;;;;2.22;2.10;;;29.40;44.90;;;33.27;29.29;100682.19;5114352;28;20043;-55
2021/07/13 09:08:25;;;;;;;2.33;2.13;;;29.40;44.60;;;33.24;29.00;100677.94;5114021;28;20433;-49
2021/07/13 09:11:11;;;;;;;2.60;2.40;;;29.40;44.60;;;33.23;29.10;100689.84;5114178;28;20049;-52
2021/07/13 09:13:48;;;;;;;1.98;1.85;;;29.40;44.70;;;33.19;28.96;100685.78;5114261;28;20059;-50
2021/07/13 09:16:20;;;;;;;2.03;1.92;;;29.30;44.60;;;33.17;28.91;100677.00;5113728;28;20044;-54
2021/07/13 09:18:53;;;;;;;1.90;1.80;;;29.30;44.70;;;33.16;29.55;100686.16;5114030;28;20101;-53
2021/07/13 09:21:26;;;;;;;2.22;1.90;;;29.30;44.70;;;33.15;28.88;100676.34;5113869;28;20044;-50
2021/07/13 09:24:21;;;;;;;2.33;2.20;;;29.30;44.70;;;33.11;29.01;100674.97;5095378;28;20104;-54
2021/07/13 09:27:00;;;;;;;2.03;1.92;;;29.30;44.80;;;33.12;29.56;100681.25;5113798;28;20044;-50
2021/07/13 09:29:44;;;;;;;1.95;1.85;;;29.30;44.70;;;33.09;29.50;100673.47;5095399;28;20487;-51
2021/07/13 09:32:19;;;;;;;1.80;1.70;;;29.30;44.70;;;33.12;29.30;100675.84;5113577;28;20066;-47
2021/07/13 09:35:04;;;;;;;1.92;1.83;;;29.30;44.70;;;33.11;29.56;100677.69;5093938;28;20411;-49
2021/07/13 09:37:38;;;;;;;1.92;1.83;;;29.30;44.70;;;33.09;29.21;100668.06;5113456;28;20046;-53
2021/07/13 09:40:12;;;;;;;2.10;2.00;;;29.30;44.70;;;33.10;29.15;100676.00;5113565;28;20457;-53
2021/07/13 09:42:49;;;;;;;2.45;2.25;;;29.30;44.70;;;33.07;29.59;100670.13;5113579;28;20471;-54
2021/07/13 09:45:24;;;;;;;2.40;2.20;;;29.30;44.70;;;33.08;29.28;100669.94;5095443;28;20052;-58
2021/07/13 09:47:55;;;;;;;2.13;1.80;;;29.30;44.70;;;33.05;29.19;100665.72;5113106;28;20079;-55
2021/07/13 09:50:51;;;;;;;1.92;1.83;;;29.30;44.70;;;33.05;29.30;100668.41;5110758;28;20144;-54
2021/07/13 09:53:20;;;;;;;2.13;2.00;;;29.30;44.70;;;33.07;29.56;100668.25;5113191;28;20519;-53
2021/07/13 09:55:49;;;;;;;1.90;1.80;;;29.30;44.70;;;33.08;29.35;100669.06;5113241;28;20608;-53
2021/07/13 09:58:23;;;;;;;2.53;2.30;;;29.30;44.70;;;33.05;29.65;100659.47;5113181;28;20063;-53
2021/07/13 10:00:52;;;;;;;1.95;1.85;;;29.30;44.70;;;33.10;29.50;100669.75;5113699;28;20539;-53
2021/07/13 10:03:21;;;;;;;2.10;2.00;;;29.30;44.70;;;33.12;29.49;100662.28;5113667;28;20593;-51
2021/07/13 10:05:51;;;;;;;2.30;2.10;;;29.40;44.70;;;33.10;29.24;100664.34;5112531;28;20466;-49
2021/07/13 10:08:18;;;;;;;2.17;2.00;;;29.40;44.70;;;33.12;29.40;100665.84;5112997;28;20516;-52
2021/07/13 10:10:46;;;;;;;2.10;2.00;;;29.30;44.70;;;33.12;29.53;100671.25;5113366;28;20051;-55